White Post, Virginia
Current Conditions -  °F | °C
As of 6:35 PM on Wednesday 22 Oct 2014 (Local Time) from KOKV Reporting Station
Clear Clear  
Wind Chill: 11°   Ceiling: Unl
Heat Index: 11°   Visibility: 10mi
Dew Point:   Wind: 16mph
Humidity: 67%   Direction: 310°NW
Pressure: 30.01"   Gusts: NA
Location:  39.06°N, 78.1°W
Report Text: KOKV 222235Z AUTO 31014KT 10SM CLR 11/05 A3001 RMK AO2
Loading
Personal Weather Stations






























Interactive Weather Map
Tropical Storm Tracking
New forecast layout! Learn more

10-Day Weather Forecast

Advertisements
Track Severe Weather on mobile